Logo AVAMET
Benvolgut visitant, si us plau, ingressa Recuperar contrasenya

Elx Velarde

Dades diàries. Acumulats / Últims 30 dies disponibles

Data Temperatura (°C) Humitat rel. (%) Pressió rel. (hPa) Vent (km/h) Precipitació
Mínima Mitjana Màxima Amplitud
tèrmica
Mínima Mitjana Màxima Mínima Mitjana Màxima Predom. Mitjana Ràfega
màxima
Total
(mm)
Índex-n
Mínima Mitjana Màxima Mínima Mitjana Màxima n
0 a 1
P0 max
mm 5'
Dades mensuals acumulades fins l'últim dia disponible
08/2019 21,9 24,2 27,4 28,5 29,2 32,8 38,1 16,2 18 62 90 1.009 1.014 1.020   35,0 0,0
Dades anuals acumulades fins l'últim dia disponible
2019 3,2 15,1 27,4 19,5 13,1 23,9 38,1 34,9 13 58 99 995 1.017 1.034   6,2 54,0 140,0
Últims 30 dies disponibles
18-08-2019 23,2     28,4     33,7 10,5 42 65 87 1.011 1.013 1.014 26,0 0,0
17-08-2019 22,6     27,4     32,1 9,5 36 61 85 1.013 1.015 1.017 20,0 0,0
16-08-2019 21,9     27,1     32,2 10,3 44 63 82 1.016 1.018 1.019 23,0 0,0
15-08-2019 22,3     26,9     31,6 9,3 34 60 85 1.017 1.018 1.019 26,0 0,0
14-08-2019 21,9     25,6     29,4 7,5 58 69 80 1.017 1.019 1.020 24,0 0,0
13-08-2019 24,1     26,6     29,2 5,1 46 62 78 1.016 1.018 1.019 31,0 0,0
12-08-2019 26,0     30,3     34,6 8,6 18 52 86 1.010 1.014 1.017 35,0 0,0
11-08-2019 25,2     27,8     30,4 5,2 67 79 90 1.011 1.013 1.015 26,0 0,0
10-08-2019 26,4     31,9     37,3 10,9 27 53 79 1.013 1.015 1.016 29,0 0,0
09-08-2019 25,5     31,8     38,1 12,6 20 48 76 1.011 1.012 1.013 26,0 0,0
08-08-2019 27,4     30,6     33,7 6,3 33 53 72 1.011 1.013 1.014 23,0 0,0
07-08-2019 25,1     31,2     37,3 12,2 23 54 85 1.009 1.011 1.012 24,0 0,0
06-08-2019 24,1     28,4     32,6 8,5 53 71 88 1.009 1.012 1.014 23,0 0,0
05-08-2019 24,3     28,2     32,2 7,9 55 71 86 1.011 1.013 1.015 23,0 0,0
04-08-2019 23,4     27,7     32,0 8,6 46 66 85 1.012 1.014 1.015 22,0 0,0
03-08-2019 24,1     27,6     31,2 7,1 35 59 82 1.013 1.015 1.016 22,0 0,0
02-08-2019 24,0     27,9     31,7 7,7 52 67 81 1.012 1.014 1.016 29,0 0,0
01-08-2019 23,4     27,0     30,6 7,2 43 62 80 1.010 1.012 1.014 25,0 0,0
31-07-2019 23,4     26,1     28,8 5,4 48 65 82 1.012 1.015 1.017 34,0 0,0
30-07-2019 22,3     26,4     30,4 8,1 48 69 89 1.011 1.013 1.015 29,0 0,0
29-07-2019 22,7     26,5     30,3 7,6 44 64 84 1.010 1.011 1.012 27,0 0,0
28-07-2019 24,9     27,9     30,8 5,9 31 56 80 1.007 1.009 1.011 35,0 0,0
27-07-2019 25,6     30,9     36,1 10,5 17 47 77 1.003 1.006 1.008 40,0 0,0
26-07-2019 22,8     27,6     32,3 9,5 41 66 90 1.007 1.011 1.014 23,0 0,0
25-07-2019 24,2     29,2     34,2 10,0 29 56 82 1.012 1.014 1.015 24,0 0,0
24-07-2019 24,2     29,4     34,7 10,5 22 37 51 1.014 1.016 1.017 23,0 0,0
23-07-2019 23,6     29,4     35,3 11,7 18 37 56 1.015 1.017 1.019 24,0 0,0
22-07-2019 24,8     28,8     32,7 7,9 32 47 62 1.018 1.020 1.021 30,0 0,0
21-07-2019 25,1     29,9     34,8 9,7 21 45 68 1.016 1.019 1.021 39,0 0,0
20-07-2019 24,1     28,5     32,9 8,8 32 51 69 1.013 1.015 1.017 35,0 0,0
Últims 13 mesos disponibles
07/2019 21,4 23,5 25,9 27,9 28,8 32,3 36,1 14,7 37 57 72 1.006 1.014 1.020 40,0 0,0
06/2019 15,3 19,4 24,4 23,9 23,8 28,4 35,7 20,4 36 59 75 1.009 1.015 1.022 SSE 0,2 49,0 0,3
05/2019 12,2 15,9 21,0 20,0 19,3 24,1 30,8 18,6 48 61 77 1.006 1.015 1.025 45,0 1,8
04/2019 8,1 12,6 16,2 16,6 15,1 20,5 28,2 20,1 39 61 85 1.002 1.013 1.025 50,0 121,6
03/2019 7,6 10,8 13,9 15,5 14,2 20,2 28,6 21,0 35 56 83 1.012 1.023 1.030 43,0 14,5
02/2019 5,9 9,1 12,9 13,9 14,7 18,7 25,7 19,8 32 56 73 999 1.025 1.033 54,0 0,3
01/2019 3,2 8,6 13,6 13,0 13,1 17,4 21,9 18,7 35 53 72 1.006 1.019 1.031 51,0 1,5
12/2018 7,3 10,6 14,2 15,1 14,8 19,5 26,6 19,3 45 61 78 1.011 1.025 1.031 53,0 7,6
11/2018 8,5 12,4 15,5 16,0 14,8 19,6 23,7 15,2 41 64 84 1.001 1.015 1.023 51,0 35,1
10/2018 9,7 16,2 20,1 20,2 14,8 24,2 28,3 18,6 37 64 76 1.000 1.014 1.025 50,0 31,8
09/2018 16,7 21,7 23,8 25,5 26,2 29,2 32,1 15,4 56 68 81 1.012 1.018 1.026 80,0 19,6
08/2018 21,0 24,0 27,7 28,0 28,5 32,0 36,6 15,6 41 64 81 1.013 1.016 1.020 42,0 5,8
07/2018 21,1 23,2 25,3 27,4 29,4 31,6 36,6 15,5 44 62 75 1.009 1.014 1.019 39,0 0,0
Tots els anys disponibles
2018 3,8 15,6 27,7 19,8 10,6 23,9 36,6 32,8 35 61 85 994 1.016 1.033 80,0 210,4
Temperatura (°C)
Humitat relativa (%)
Velocitat del vent i ràfega màxima (km/h)
Direcció del vent (°)
Pressió (hPa)
Precipitació (mm)
Nota sobre les dades: s'avisa a l'usuari de la provisionalitat i no oficialitat d'aquestes dades
Logo AVAMET blanc
Web allotjada a Sollutia
Llicència de Creative CommonsLa web d'AVAMET i els seus continguts estan subjectes a una llicència de
Reconeixement - No Comercial - Compartir igual
Properes estacions: Altea - Club Nàutic d'Altea (Soci), Ares del Maestrat (Ajuntament Soci),      - - - - -      Últimes estacions: Catadau - Urb. Lloma Molina (Inforatge), Ontinyent - El Pilar (Soci) - - -